Latest Coastal Weather Observations for Burnie Port

IDT60701

Issued at 7:32 pm EST Wednesday 6 May 2026 (issued every 10 minutes, with the page automatically refreshed every 10 minutes)

About coastal observations | Map of coastal stations | Coastal observations for TAS | Marine services | Other Formats
Station Details ID: 091344 Name: BURNIE NTC AWS Lat: -41.05 Lon: 145.91 Height: 0.0 m
Data from the previous 72 hours. | See also: Recent months for locations in Tasmania
Date/Time
EST
Wind Sea
Height
m
Swell Vis
km
Cloud Weather Temp
°C
Press
MSL
hPa
Rain since
9am
mm
Dir  Spd
kts
Gust
kts
Height
m
Period
s
Dir
06/07:30pm WSW 6 9 - - - - - - - 10.6 1008.9 -
06/07:00pm W 8 15 - - - - - - - 10.8 1009.2 -
06/06:30pm WNW 8 16 - - - - - - - 11.0 1008.7 -
06/06:00pm W 7 13 - - - - - - - 11.7 1008.4 -
06/05:30pm W 10 19 - - - - - - - 12.5 1007.8 -
06/05:00pm WSW 9 17 - - - - - - - 13.0 1007.3 -
06/04:30pm W 8 14 - - - - - - - 14.0 1007.1 -
06/04:00pm WNW 18 28 - - - - - - - 13.9 1007.4 -
06/03:30pm NW 24 29 - - - - - - - 15.5 1007.9 -
06/03:00pm NW 20 27 - - - - - - - 15.8 1008.2 -
06/02:30pm NW 20 26 - - - - - - - 16.1 1008.8 -
06/02:00pm WNW 16 24 - - - - - - - 15.9 1009.3 -
06/01:30pm WNW 17 28 - - - - - - - 16.0 1009.7 -
06/01:00pm NW 17 24 - - - - - - - 15.4 1010.3 -
06/12:30pm W 12 23 - - - - - - - 14.4 1011.2 -
06/12:00pm WNW 14 18 - - - - - - - 15.9 1011.5 -
06/11:30am WNW 15 20 - - - - - - - 15.3 1012.1 -
06/11:00am NW 19 24 - - - - - - - 14.6 1012.7 -
06/10:30am WNW 12 17 - - - - - - - 14.6 1013.2 -
06/10:00am WNW 14 21 - - - - - - - 14.1 1013.5 -
06/09:30am WNW 10 17 - - - - - - - 14.9 1013.9 -
06/09:00am WNW 10 19 - - - - - - - 13.8 1014.2 -
06/08:30am WNW 6 11 - - - - - - - 14.3 1014.5 -
06/08:00am WNW 6 9 - - - - - - - 13.8 1014.8 -
06/07:30am WNW 7 12 - - - - - - - 13.4 1014.9 -
06/07:00am WNW 8 15 - - - - - - - 13.8 1014.9 -
06/06:30am W 8 12 - - - - - - - 14.2 1014.9 -
06/06:00am WNW 7 12 - - - - - - - 14.1 1015.1 -
06/05:30am WNW 8 14 - - - - - - - 14.3 1015.2 -
06/05:00am WNW 7 12 - - - - - - - 13.7 1015.4 -
06/04:30am WNW 10 17 - - - - - - - 14.1 1015.6 -
06/04:00am WNW 7 12 - - - - - - - 13.8 1015.5 -
06/03:30am WNW 9 16 - - - - - - - 13.8 1015.7 -
06/03:00am WNW 11 15 - - - - - - - 14.1 1016.1 -
06/02:30am WNW 7 12 - - - - - - - 13.9 1016.5 -
06/02:00am WNW 9 15 - - - - - - - 13.9 1016.7 -
06/01:30am WNW 10 17 - - - - - - - 14.2 1016.8 -
06/01:00am WNW 6 9 - - - - - - - 13.6 1017.2 -
06/12:30am WNW 5 9 - - - - - - - 13.4 1017.3 -
06/12:00am WNW 6 9 - - - - - - - 13.5 1017.4 -
 
Date/Time
EST
Wind Sea
Height
m
Swell Vis
km
Cloud Weather Temp
°C
Press
MSL
hPa
Rain since
9am
mm
Dir  Spd
kts
Gust
kts
Height
m
Period
s
Dir
05/11:30pm WNW 7 10 - - - - - - - 13.5 1017.6 -
05/11:00pm W 3 7 - - - - - - - 13.5 1017.9 -
05/10:30pm WNW 1 3 - - - - - - - 12.9 1018.0 -
05/10:00pm WNW 3 5 - - - - - - - 12.9 1018.4 -
05/09:30pm WNW 4 7 - - - - - - - 12.9 1018.4 -
05/09:00pm WNW 4 7 - - - - - - - 13.1 1018.5 -
05/08:30pm W 5 9 - - - - - - - 13.0 1018.5 -
05/08:00pm W 6 10 - - - - - - - 12.9 1018.5 -
05/07:30pm W 6 8 - - - - - - - 13.1 1018.5 -
05/07:00pm WNW 6 9 - - - - - - - 13.2 1018.2 -
05/06:30pm WNW 6 9 - - - - - - - 13.2 1017.7 -
05/06:00pm WNW 7 12 - - - - - - - 13.8 1017.4 -
05/05:30pm WNW 5 9 - - - - - - - 14.4 1016.9 -
05/05:00pm W 5 8 - - - - - - - 14.4 1016.6 -
05/04:30pm W 6 11 - - - - - - - 14.8 1016.4 -
05/04:00pm W 6 12 - - - - - - - 15.2 1015.9 -
05/03:30pm WSW 10 17 - - - - - - - 15.4 1015.6 -
05/03:00pm WSW 10 21 - - - - - - - 15.5 1015.4 -
05/02:30pm SW 10 19 - - - - - - - 15.7 1014.8 -
05/02:00pm W 11 18 - - - - - - - 15.7 1014.5 -
05/01:30pm WSW 12 20 - - - - - - - 15.7 1014.2 -
05/01:00pm W 11 19 - - - - - - - 16.3 1013.9 -
05/12:30pm W 8 14 - - - - - - - 16.7 1013.8 -
05/12:00pm W 8 16 - - - - - - - 16.7 1014.0 -
05/11:30am W 5 11 - - - - - - - 16.0 1013.9 -
05/11:00am WSW 8 15 - - - - - - - 15.8 1013.8 -
05/10:30am WSW 9 16 - - - - - - - 15.3 1013.4 -
05/10:00am W 9 16 - - - - - - - 14.9 1013.1 -
05/09:30am W 8 15 - - - - - - - 14.5 1013.0 -
05/09:00am W 5 11 - - - - - - - 14.3 1012.8 -
05/08:30am NW 3 5 - - - - - - - 13.5 1012.3 -
05/08:00am NW 6 8 - - - - - - - 13.1 1012.0 -
05/07:30am WNW 5 8 - - - - - - - 12.8 1011.3 -
05/07:00am W 6 8 - - - - - - - 12.9 1010.7 -
05/06:30am WSW 4 7 - - - - - - - 12.8 1009.9 -
05/06:00am WSW 5 9 - - - - - - - 12.8 1009.6 -
05/05:30am W 2 6 - - - - - - - 13.1 1008.9 -
05/05:00am SW 6 8 - - - - - - - 13.4 1008.5 -
05/04:30am SW 4 7 - - - - - - - 13.1 1008.1 -
05/04:00am SSW 3 6 - - - - - - - 12.7 1007.4 -
05/03:30am SSW 6 8 - - - - - - - 13.2 1007.0 -
05/03:00am S 8 11 - - - - - - - 13.5 1006.7 -
05/02:30am S 7 9 - - - - - - - 13.9 1006.3 -
05/02:00am S 8 9 - - - - - - - 14.1 1006.2 -
05/01:30am SSW 6 8 - - - - - - - 13.9 1006.3 -
05/01:00am WSW 3 4 - - - - - - - 13.9 1006.5 -
05/12:30am N 10 14 - - - - - - - 14.6 1006.3 -
05/12:00am NNE 12 15 - - - - - - - 15.4 1006.2 -
 
Date/Time
EST
Wind Sea
Height
m
Swell Vis
km
Cloud Weather Temp
°C
Press
MSL
hPa
Rain since
9am
mm
Dir  Spd
kts
Gust
kts
Height
m
Period
s
Dir
04/11:30pm N 15 18 - - - - - - - 15.7 1006.2 -
04/11:00pm N 10 13 - - - - - - - 15.9 1006.5 -
04/10:30pm N 16 20 - - - - - - - 16.2 1006.7 -
04/10:00pm N 14 16 - - - - - - - 15.9 1006.9 -
04/09:30pm NNW 16 20 - - - - - - - 15.5 1007.0 -
04/09:00pm N 19 24 - - - - - - Thunderstorm 15.4 1007.0 -
04/08:34pm N 20 30 - - - - - - - 14.7 1006.8 -
04/08:30pm N 23 30 - - - - - - - 14.2 1006.7 -
04/08:22pm NNE 16 30 - - - - - - - 16.4 1006.6 -
04/08:00pm N 15 21 - - - - - - - 16.7 1006.7 -
04/07:30pm N 15 19 - - - - - - - 17.0 1007.0 -
04/07:00pm N 17 20 - - - - - - - 16.9 1007.1 -
04/06:30pm N 18 21 - - - - - - - 16.9 1007.0 -
04/06:00pm NNW 19 23 - - - - - - - 16.8 1006.9 -
04/05:30pm N 15 24 - - - - - - - 16.6 1006.9 -
04/05:00pm NNW 20 26 - - - - - - - 16.2 1006.9 -
04/04:30pm NNW 17 22 - - - - - - - 16.4 1007.0 -
04/04:00pm N 19 24 - - - - - - - 16.6 1006.9 -
04/03:30pm N 19 24 - - - - - - - 16.5 1007.0 -
04/03:00pm N 19 24 - - - - - - - 16.5 1007.1 -
04/02:30pm N 19 23 - - - - - - - 16.4 1007.2 -
04/02:00pm N 21 24 - - - - - - - 16.5 1007.4 -
04/01:30pm N 17 21 - - - - - - - 16.5 1007.7 -
04/01:00pm N 18 23 - - - - - - - 16.6 1007.9 -
04/12:30pm N 16 19 - - - - - - - 16.6 1008.2 -
04/12:00pm N 16 20 - - - - - - - 16.6 1008.7 -
04/11:30am N 16 19 - - - - - - - 16.7 1009.0 -
04/11:00am N 17 21 - - - - - - - 16.7 1009.1 -
04/10:30am N 17 21 - - - - - - - 16.6 1009.3 -
04/10:00am N 15 19 - - - - - - - 16.3 1009.3 -
04/09:30am N 16 20 - - - - - - - 16.4 1009.4 -
04/09:00am NNW 14 17 - - - - - - - 16.4 1009.4 -
04/08:30am SSW 2 7 - - - - - - - 15.4 1009.4 -
04/08:00am SSW 4 5 - - - - - - - 13.5 1009.4 -
04/07:30am SSW 3 5 - - - - - - - 13.3 1009.3 -
04/07:00am S 3 5 - - - - - - - 13.4 1009.0 -
04/06:30am S 3 4 - - - - - - - 13.4 1009.0 -
04/06:00am SSW 3 4 - - - - - - - 13.3 1009.3 -
04/05:30am S 3 4 - - - - - - - 13.2 1009.1 -
04/05:00am SSW 4 5 - - - - - - - 13.6 1009.0 -
04/04:30am SSW 6 7 - - - - - - - 13.2 1009.0 -
04/04:00am SW 3 5 - - - - - - - 14.0 1009.3 -
04/03:30am S 5 7 - - - - - - - 13.6 1009.4 -
04/03:00am SSW 6 7 - - - - - - - 13.3 1009.6 -
04/02:30am SSW 4 5 - - - - - - - 13.4 1009.9 -
04/02:00am SSW 4 5 - - - - - - - 13.0 1010.2 -
04/01:30am SSW 2 3 - - - - - - - 13.1 1010.4 -
04/01:00am SSW 4 4 - - - - - - - 13.4 1010.2 -
04/12:30am SSW 4 5 - - - - - - - 13.3 1010.1 -
04/12:00am SSW 3 4 - - - - - - - 13.4 1010.0 -
 
Date/Time
EST
Wind Sea
Height
m
Swell Vis
km
Cloud Weather Temp
°C
Press
MSL
hPa
Rain since
9am
mm
Dir  Spd
kts
Gust
kts
Height
m
Period
s
Dir
03/11:30pm NW 1 2 - - - - - - - 14.6 1010.9 -
03/11:00pm NW 1 4 - - - - - - - 14.5 1010.4 -
03/10:30pm SW 3 6 - - - - - - - 14.7 1010.5 -
03/10:00pm WSW 3 6 - - - - - - - 15.2 1010.3 -
03/09:30pm WNW 2 3 - - - - - - - 15.2 1010.8 -
03/09:00pm WNW 6 8 - - - - - - - 15.7 1010.9 -
03/08:30pm W 6 10 - - - - - - - 16.6 1010.2 -
03/08:00pm W 6 10 - - - - - - - 16.7 1009.5 -

Other formats

Comma delimited format used in spreadsheet applications
http://www.bom.gov.au/fwo/IDT60701/IDT60701.95963.axf

JavaScript Object Notation format (JSON) in row-major order
http://www.bom.gov.au/fwo/IDT60701/IDT60701.95963.json

Data quality

Most of these data are generated automatically and are frequently updated. Quality checks on data are not normally performed. It is possible for incorrect values to appear. Refer to information at About Latest Weather Observations and please check the disclaimer before using these data.